Time;durP1;ratioP1;P1;durP2;ratioP2;P2;SDS_P1;SDS_P2;PMS_P1;PMS_P2;Temp;Humidity;BMP_temperature;BMP_pressure;BME280_temperature;BME280_humidity;BME280_pressure;Samples;Min_cycle;Max_cycle;Signal;HPM_P1;HPM_P2
2022/05/11 00:00:35;;;;;;;;;;;16.60;61.90;;;;;;5077322;28;20028;-89
2022/05/11 00:03:01;;;;;;;3.95;1.38;;;16.60;61.60;;;;;;5092302;28;19908;-89
2022/05/11 00:05:27;;;;;;;4.63;1.40;;;16.60;61.40;;;;;;5108557;28;20020;-88
2022/05/11 00:07:53;;;;;;;3.80;1.50;;;16.70;61.50;;;;;;5072916;28;20475;-89
2022/05/11 00:10:19;;;;;;;6.50;1.75;;;16.70;61.10;;;;;;5073566;28;20067;-88
2022/05/11 00:12:46;;;;;;;4.22;2.08;;;16.60;61.70;;;;;;5076786;28;20103;-88
2022/05/11 00:15:14;;;;;;;4.45;1.45;;;16.50;61.70;;;;;;5074284;28;20032;-88
2022/05/11 00:17:40;;;;;;;8.57;2.10;;;16.50;61.80;;;;;;5076835;28;20024;-88
2022/05/11 00:20:07;;;;;;;3.70;1.67;;;16.40;61.80;;;;;;5074033;28;20095;-89
2022/05/11 00:22:34;;;;;;;5.70;1.90;;;16.30;62.10;;;;;;5076406;28;20025;-89
2022/05/11 00:25:00;;;;;;;2.85;1.27;;;16.40;62.20;;;;;;5072751;28;20116;-88
2022/05/11 00:27:26;;;;;;;5.95;1.95;;;16.30;62.60;;;;;;5072052;28;20086;-88
2022/05/11 00:29:52;;;;;;;6.65;1.67;;;16.30;63.00;;;;;;5076527;28;20045;-88
2022/05/11 00:32:18;;;;;;;6.68;1.88;;;16.30;62.40;;;;;;5073978;28;20100;-89
2022/05/11 00:34:44;;;;;;;7.38;1.88;;;16.30;62.10;;;;;;5075915;28;20021;-89
2022/05/11 00:37:11;;;;;;;6.35;2.35;;;16.30;62.50;;;;;;5073930;28;20055;-89
2022/05/11 00:39:36;;;;;;;3.35;1.80;;;16.30;63.30;;;;;;5075220;28;20044;-89
2022/05/11 00:42:04;;;;;;;5.95;1.75;;;16.30;63.30;;;;;;5072510;28;20577;-89
2022/05/11 00:44:30;;;;;;;7.18;2.13;;;16.30;63.80;;;;;;5084852;28;20028;-90
2022/05/11 00:47:20;;;;;;;4.72;2.45;;;16.40;63.20;;;;;;5096257;28;20665;-89
2022/05/11 00:50:08;;;;;;;287.88;184.18;;;16.50;63.10;;;;;;5083567;28;20502;-89
2022/05/11 00:52:37;;;;;;;524.70;327.77;;;16.60;63.10;;;;;;5089533;28;20036;-89
2022/05/11 00:55:06;;;;;;;6.88;1.95;;;16.70;62.30;;;;;;5092783;28;20091;-88
2022/05/11 00:57:38;;;;;;;4.50;1.90;;;16.70;62.70;;;;;;5095434;28;20028;-89
2022/05/11 01:00:10;;;;;;;5.65;1.95;;;16.70;62.70;;;;;;5076891;28;20055;-89
2022/05/11 01:02:38;;;;;;;8.48;2.88;;;16.70;62.90;;;;;;5087833;28;20044;-88
2022/05/11 01:05:06;;;;;;;5.93;1.80;;;16.70;63.20;;;;;;5110470;28;20031;-90
2022/05/11 01:07:33;;;;;;;5.68;1.80;;;16.80;62.50;;;;;;5114456;28;20031;-89
2022/05/11 01:09:58;;;;;;;4.88;2.05;;;16.80;63.40;;;;;;5115469;28;20023;-88
2022/05/11 01:12:35;;;;;;;7.03;1.90;;;16.70;64.70;;;;;;5096394;28;20040;-88
2022/05/11 01:15:04;;;;;;;9.98;2.47;;;16.70;64.50;;;;;;5074576;28;20068;-89
2022/05/11 01:17:35;;;;;;;8.10;2.10;;;16.70;64.50;;;;;;5073026;28;20438;-88
2022/05/11 01:20:04;;;;;;;9.18;2.28;;;16.70;64.40;;;;;;5075808;28;20049;-87
2022/05/11 01:22:48;;;;;;;7.15;1.88;;;16.70;64.20;;;;;;5071418;28;20120;-87
2022/05/11 01:25:15;;;;;;;5.47;2.25;;;16.60;65.60;;;;;;5084377;28;20483;-87
2022/05/11 01:27:45;;;;;;;6.32;1.90;;;16.50;65.30;;;;;;5093064;28;20020;-82
2022/05/11 01:30:12;;;;;;;2.83;1.88;;;16.60;65.10;;;;;;5083757;28;20033;-82
2022/05/11 01:32:40;;;;;;;4.47;1.92;;;16.70;64.60;;;;;;5088470;28;20494;-83
2022/05/11 01:35:41;;;;;;;4.53;1.75;;;16.80;64.90;;;;;;5091564;28;20024;-83
2022/05/11 01:38:23;;;;;;;5.85;2.33;;;16.80;64.40;;;;;;5065305;28;20036;-83
2022/05/11 01:40:49;;;;;;;9.05;2.03;;;16.80;63.90;;;;;;5072645;28;20039;-82
2022/05/11 01:43:18;;;;;;;7.35;2.47;;;16.90;63.80;;;;;;5071817;28;20040;-83
2022/05/11 01:45:44;;;;;;;8.93;2.28;;;16.90;64.40;;;;;;5072344;28;20025;-83
2022/05/11 01:48:09;;;;;;;8.18;2.25;;;16.80;64.20;;;;;;5091571;28;20036;-84
2022/05/11 01:50:35;;;;;;;11.85;2.05;;;16.90;64.10;;;;;;5092814;28;20478;-83
2022/05/11 01:53:04;;;;;;;8.10;2.00;;;16.90;64.30;;;;;;5091019;28;20028;-84
2022/05/11 01:55:30;;;;;;;4.88;1.92;;;16.80;64.90;;;;;;5085439;28;20542;-83
2022/05/11 01:57:56;;;;;;;5.80;1.90;;;16.90;64.70;;;;;;5075351;28;20129;-83
2022/05/11 02:00:22;;;;;;;9.80;2.33;;;16.90;64.40;;;;;;5075678;28;20016;-84
2022/05/11 02:02:48;;;;;;;9.38;1.98;;;16.90;64.50;;;;;;5075962;28;20043;-83
2022/05/11 02:07:58;;;;;;;8.32;2.05;;;16.90;64.20;;;;;;5095874;28;20517;-83
2022/05/11 02:10:27;;;;;;;9.90;2.65;;;16.90;64.10;;;;;;5075775;28;20064;-83
2022/05/11 02:12:53;;;;;;;4.97;2.08;;;16.80;64.70;;;;;;5091604;28;20028;-83
2022/05/11 02:15:20;;;;;;;5.80;2.28;;;16.80;64.60;;;;;;5087392;28;20028;-83
2022/05/11 02:17:46;;;;;;;3.70;2.00;;;16.70;65.10;;;;;;5074713;28;20035;-83
2022/05/11 02:20:14;;;;;;;5.15;1.77;;;16.60;64.20;;;;;;5095910;28;20067;-83
2022/05/11 02:22:41;;;;;;;6.70;2.40;;;16.50;64.40;;;;;;5080590;28;20090;-83
2022/05/11 02:25:08;;;;;;;5.30;1.63;;;16.50;64.50;;;;;;5075536;28;20039;-83
2022/05/11 02:27:37;;;;;;;6.22;2.22;;;16.40;65.10;;;;;;5075522;28;20032;-83
2022/05/11 02:30:04;;;;;;;4.00;1.83;;;16.30;66.20;;;;;;5073801;28;20482;-83
2022/05/11 02:32:30;;;;;;;8.43;2.25;;;16.30;66.00;;;;;;5075283;28;20028;-84
2022/05/11 02:35:16;;;;;;;12.45;2.35;;;16.50;65.80;;;;;;5075343;28;20549;-83
2022/05/11 02:37:48;;;;;;;4.15;2.00;;;16.50;66.00;;;;;;5075196;28;20013;-83
2022/05/11 02:40:23;;;;;;;5.93;2.17;;;16.40;66.40;;;;;;5090632;28;20038;-83
2022/05/11 02:42:48;;;;;;;7.43;1.65;;;16.40;66.60;;;;;;5084355;28;20186;-82
2022/05/11 02:45:16;;;;;;;7.97;2.60;;;16.50;65.80;;;;;;5075110;28;20082;-83
2022/05/11 02:47:43;;;;;;;3.05;1.73;;;16.50;65.70;;;;;;5075168;28;20048;-83
2022/05/11 02:50:13;;;;;;;63.97;45.63;;;16.60;65.60;;;;;;5074974;28;20039;-83
2022/05/11 02:52:38;;;;;;;7.50;2.78;;;16.70;65.30;;;;;;5092783;28;20122;-83
2022/05/11 02:55:04;;;;;;;47.45;34.38;;;16.70;65.60;;;;;;5095185;28;20055;-83
2022/05/11 02:57:30;;;;;;;85.68;75.75;;;16.60;65.70;;;;;;5091754;28;20458;-83
2022/05/11 02:59:58;;;;;;;45.22;39.05;;;16.60;65.90;;;;;;5074203;28;20043;-82
2022/05/11 03:02:24;;;;;;;4.15;2.22;;;16.60;65.70;;;;;;5075019;28;20483;-84
2022/05/11 03:04:50;;;;;;;198.07;141.73;;;16.40;66.30;;;;;;5108391;28;20042;-83
2022/05/11 03:07:18;;;;;;;32.50;28.65;;;16.50;65.80;;;;;;5108537;28;20661;-83
2022/05/11 03:09:44;;;;;;;149.77;105.55;;;16.50;65.70;;;;;;5074795;28;20048;-83
2022/05/11 03:12:10;;;;;;;49.90;36.17;;;16.50;65.60;;;;;;5074439;28;20040;-83
2022/05/11 03:14:35;;;;;;;33.50;30.90;;;16.20;66.70;;;;;;5074537;28;20021;-83
2022/05/11 03:17:02;;;;;;;79.78;58.22;;;16.30;66.20;;;;;;5072967;28;20394;-83
2022/05/11 03:19:28;;;;;;;26.20;22.17;;;16.40;66.10;;;;;;5074248;28;20048;-83
2022/05/11 03:21:55;;;;;;;7.72;1.85;;;16.30;66.40;;;;;;5074344;28;20024;-84
2022/05/11 03:24:21;;;;;;;7.63;1.90;;;16.30;66.50;;;;;;5074146;28;20039;-83
2022/05/11 03:26:47;;;;;;;3.30;2.00;;;16.30;66.30;;;;;;5074347;28;20024;-84
2022/05/11 03:29:12;;;;;;;55.83;44.20;;;16.20;66.40;;;;;;5074058;28;20028;-83
2022/05/11 03:31:39;;;;;;;135.57;108.15;;;16.20;66.80;;;;;;5074153;28;20064;-83
2022/05/11 03:36:51;;;;;;;5.88;2.28;;;16.30;66.70;;;;;;5074148;28;20090;-84
2022/05/11 03:39:17;;;;;;;5.75;2.45;;;16.20;66.50;;;;;;5074048;28;20032;-84
2022/05/11 03:41:47;;;;;;;5.15;2.28;;;16.20;66.70;;;;;;5074393;28;20060;-83
2022/05/11 03:44:14;;;;;;;6.07;2.15;;;16.10;67.40;;;;;;5077566;28;20027;-83
2022/05/11 03:46:39;;;;;;;291.65;191.55;;;16.00;67.60;;;;;;5093113;28;20104;-83
2022/05/11 03:49:05;;;;;;;427.55;278.42;;;16.10;67.00;;;;;;5094155;28;20098;-83
2022/05/11 03:51:31;;;;;;;563.28;358.10;;;16.20;66.70;;;;;;5092092;28;20084;-84
2022/05/11 03:53:57;;;;;;;105.95;78.85;;;16.10;66.90;;;;;;5083102;28;20051;-84
2022/05/11 03:56:23;;;;;;;159.68;118.97;;;16.10;67.20;;;;;;5073689;28;20390;-83
2022/05/11 03:58:49;;;;;;;102.10;77.63;;;16.10;66.90;;;;;;5073598;28;20051;-83
2022/05/11 04:01:15;;;;;;;4.85;2.03;;;16.00;67.00;;;;;;5072584;28;20021;-83
2022/05/11 04:03:41;;;;;;;18.80;13.00;;;16.00;66.90;;;;;;5086697;28;20046;-84
2022/05/11 04:06:07;;;;;;;760.20;681.15;;;15.90;66.90;;;;;;5113043;28;20032;-83
2022/05/11 04:08:33;;;;;;;998.00;905.30;;;15.90;67.30;;;;;;5098718;28;20047;-83
2022/05/11 04:10:59;;;;;;;6.63;2.20;;;15.90;67.90;;;;;;5092344;28;20419;-83
2022/05/11 04:13:25;;;;;;;574.60;406.53;;;15.80;67.60;;;;;;5093734;28;20107;-83
2022/05/11 04:15:53;;;;;;;844.30;764.60;;;15.80;67.70;;;;;;5087646;28;20078;-83
2022/05/11 04:18:19;;;;;;;773.65;610.63;;;15.80;68.50;;;;;;5073241;28;20069;-83
2022/05/11 04:20:45;;;;;;;882.67;579.97;;;15.80;68.50;;;;;;5089145;28;20944;-83
2022/05/11 04:23:12;;;;;;;906.30;702.92;;;15.70;68.30;;;;;;5093516;28;20020;-83
2022/05/11 04:25:38;;;;;;;6.68;2.40;;;15.70;68.60;;;;;;5091778;28;20393;-82
2022/05/11 04:28:11;;;;;;;3.78;1.52;;;15.60;68.50;;;;;;5081309;28;20067;-83
2022/05/11 04:30:37;;;;;;;5.82;1.83;;;15.50;69.00;;;;;;5088615;28;20020;-83
2022/05/11 04:33:03;;;;;;;4.28;1.63;;;15.60;68.20;;;;;;5073146;28;20024;-83
2022/05/11 04:35:32;;;;;;;13.45;6.90;;;15.70;68.30;;;;;;5073066;28;20027;-82
2022/05/11 04:37:58;;;;;;;5.85;1.92;;;15.60;68.80;;;;;;5071787;28;20028;-82
2022/05/11 04:40:25;;;;;;;6.28;2.35;;;15.50;68.90;;;;;;5080339;28;20594;-84
2022/05/11 04:42:51;;;;;;;4.85;1.98;;;15.60;68.70;;;;;;5093312;28;20028;-89
2022/05/11 04:45:17;;;;;;;3.75;1.63;;;15.50;68.60;;;;;;5093146;28;20024;-86
2022/05/11 04:47:43;;;;;;;5.80;2.20;;;15.60;68.60;;;;;;5093229;28;20031;-89
2022/05/11 04:50:14;;;;;;;6.13;2.47;;;15.70;68.00;;;;;;5093644;28;20028;-90
2022/05/11 04:52:41;;;;;;;6.57;2.15;;;15.70;68.30;;;;;;5093542;28;20085;-90
2022/05/11 04:55:09;;;;;;;6.65;1.88;;;15.70;68.40;;;;;;5075890;28;20048;-86
2022/05/11 04:57:35;;;;;;;3.38;2.05;;;15.80;68.20;;;;;;5073092;28;20028;-85
2022/05/11 05:00:02;;;;;;;7.68;2.40;;;15.80;68.60;;;;;;5072945;28;20055;-84
2022/05/11 05:02:28;;;;;;;5.13;1.83;;;15.80;68.40;;;;;;5070255;28;20975;-85
2022/05/11 05:04:59;;;;;;;4.00;2.00;;;15.70;68.60;;;;;;5086649;28;20020;-85
2022/05/11 05:07:25;;;;;;;7.45;2.03;;;15.70;68.90;;;;;;5081017;28;20032;-85
2022/05/11 05:09:51;;;;;;;4.65;1.98;;;15.70;69.00;;;;;;5090278;28;20107;-91
2022/05/11 05:12:17;;;;;;;7.60;2.25;;;15.50;69.50;;;;;;5078053;28;20070;-88
2022/05/11 05:14:43;;;;;;;6.40;2.38;;;15.40;69.80;;;;;;5092529;28;20024;-88
2022/05/11 05:17:11;;;;;;;7.20;2.15;;;15.40;69.70;;;;;;5092447;28;20038;-90
2022/05/11 05:19:38;;;;;;;4.07;1.58;;;15.50;69.90;;;;;;5090417;28;20044;-90
2022/05/11 05:22:04;;;;;;;5.10;1.88;;;15.50;69.60;;;;;;5085439;28;20036;-91
2022/05/11 05:24:31;;;;;;;4.72;1.63;;;15.40;70.10;;;;;;5092853;28;20024;-85
2022/05/11 05:26:57;;;;;;;6.18;2.22;;;15.50;69.90;;;;;;5091490;28;20489;-88
2022/05/11 05:32:08;;;;;;;4.75;1.98;;;15.80;69.10;;;;;;5096062;28;20516;-90
2022/05/11 05:34:34;;;;;;;4.78;1.80;;;15.80;69.00;;;;;;5091583;28;20020;-81
2022/05/11 05:37:00;;;;;;;4.35;1.83;;;15.80;69.10;;;;;;5094730;28;20055;-85
2022/05/11 05:39:26;;;;;;;4.00;2.10;;;15.80;69.40;;;;;;5088235;28;20620;-85
2022/05/11 05:41:52;;;;;;;7.47;1.92;;;15.90;69.40;;;;;;5077805;28;20483;-87
2022/05/11 05:44:18;;;;;;;3.95;2.03;;;16.00;69.10;;;;;;5082444;28;20024;-88
2022/05/11 05:46:45;;;;;;;4.70;2.03;;;16.10;69.10;;;;;;5081878;28;20059;-87
2022/05/11 05:49:12;;;;;;;3.00;1.50;;;16.20;68.90;;;;;;5085914;28;20024;-88
2022/05/11 05:51:39;;;;;;;4.78;2.45;;;16.20;69.20;;;;;;5078743;28;20107;-84
2022/05/11 05:54:09;;;;;;;3.75;1.73;;;16.30;68.70;;;;;;5082635;28;20052;-84
2022/05/11 05:56:35;;;;;;;5.22;2.17;;;16.40;68.60;;;;;;5074199;28;20054;-82
2022/05/11 05:59:05;;;;;;;4.85;1.98;;;16.40;68.60;;;;;;5083732;28;20032;-86
2022/05/11 06:01:32;;;;;;;3.58;1.60;;;16.60;68.00;;;;;;5083334;28;20620;-86
2022/05/11 06:03:58;;;;;;;8.20;2.22;;;16.70;68.10;;;;;;5090912;28;20094;-84
2022/05/11 06:06:24;;;;;;;2.80;1.75;;;16.80;67.70;;;;;;5084262;28;20017;-85
2022/05/11 06:08:50;;;;;;;4.57;2.03;;;16.80;67.70;;;;;;5084649;28;20024;-88
2022/05/11 06:11:16;;;;;;;3.47;1.98;;;16.80;67.70;;;;;;5087085;28;20090;-86
2022/05/11 06:13:45;;;;;;;7.03;1.90;;;16.80;67.80;;;;;;5083528;28;20500;-88
2022/05/11 06:16:14;;;;;;;4.05;1.95;;;17.00;67.90;;;;;;5086181;28;20032;-89
2022/05/11 06:18:41;;;;;;;2.97;2.33;;;17.10;67.50;;;;;;5075263;28;20112;-88
2022/05/11 06:21:08;;;;;;;2.63;1.33;;;17.10;67.50;;;;;;5075822;28;20037;-89
2022/05/11 06:23:35;;;;;;;5.38;1.70;;;17.30;66.90;;;;;;5074736;28;20029;-88
2022/05/11 06:26:00;;;;;;;2.55;1.58;;;17.30;66.90;;;;;;5080748;28;20460;-88
2022/05/11 06:28:26;;;;;;;2.47;1.45;;;17.20;66.90;;;;;;5095440;28;20112;-88
2022/05/11 06:30:52;;;;;;;4.38;1.50;;;17.10;67.30;;;;;;5091925;28;20036;-87
2022/05/11 06:33:18;;;;;;;5.07;2.28;;;17.00;67.80;;;;;;5095364;28;20798;-87
2022/05/11 06:35:44;;;;;;;5.15;1.70;;;16.80;68.30;;;;;;5078203;28;20070;-87
2022/05/11 06:38:10;;;;;;;2.60;1.38;;;16.80;68.60;;;;;;5095843;28;20027;-85
2022/05/11 06:40:36;;;;;;;3.70;1.25;;;17.00;68.60;;;;;;5088316;28;20103;-87
2022/05/11 06:43:03;;;;;;;2.80;1.25;;;17.30;67.70;;;;;;5077260;28;20021;-87
2022/05/11 06:45:29;;;;;;;4.82;1.35;;;17.50;66.70;;;;;;5092747;28;20101;-88
2022/05/11 06:47:54;;;;;;;4.75;1.63;;;17.60;66.40;;;;;;5094034;28;20031;-87
2022/05/11 06:50:21;;;;;;;3.92;1.10;;;17.80;65.80;;;;;;5079570;28;20020;-87
2022/05/11 06:52:47;;;;;;;4.20;1.48;;;17.90;65.40;;;;;;5080226;28;20025;-86
2022/05/11 07:00:42;;;;;;;2.75;1.40;;;17.60;66.20;;;;;;5080415;28;20619;-86
2022/05/11 07:03:07;;;;;;;2.35;1.02;;;17.60;66.30;;;;;;5084416;28;20028;-84
2022/05/11 07:05:35;;;;;;;3.75;1.38;;;17.50;66.80;;;;;;5081838;28;20028;-84
2022/05/11 07:08:01;;;;;;;3.25;1.60;;;17.60;66.80;;;;;;5081328;28;20118;-85
2022/05/11 07:10:27;;;;;;;6.78;1.30;;;17.80;65.70;;;;;;5079899;28;20024;-85
2022/05/11 07:12:53;;;;;;;1.50;1.05;;;18.30;64.50;;;;;;5082133;28;20017;-85
2022/05/11 07:15:21;;;;;;;1.63;0.77;;;19.10;61.80;;;;;;5075137;28;20588;-78
2022/05/11 07:17:53;;;;;;;4.53;0.93;;;19.90;59.50;;;;;;5075451;28;20021;-86
2022/05/11 07:20:26;;;;;;;3.05;0.80;;;20.20;58.50;;;;;;5082283;28;20048;-85
2022/05/11 07:22:53;;;;;;;1.38;0.80;;;20.00;57.70;;;;;;5083272;28;20028;-88
2022/05/11 07:25:21;;;;;;;1.25;0.60;;;20.10;57.80;;;;;;5084626;28;20032;-89
2022/05/11 07:27:48;;;;;;;2.17;0.80;;;20.00;57.30;;;;;;5081729;28;20033;-90
2022/05/11 07:30:17;;;;;;;3.80;0.88;;;21.30;54.50;;;;;;5081265;28;20476;-91
2022/05/11 07:32:43;;;;;;;3.90;0.98;;;25.10;44.90;;;;;;5082774;28;20052;-91
2022/05/11 07:35:09;;;;;;;1.98;0.80;;;27.10;39.80;;;;;;5085402;28;20058;-91
2022/05/11 07:37:35;;;;;;;2.85;0.70;;;26.40;40.90;;;;;;5081177;28;20020;-92
2022/05/11 07:40:01;;;;;;;1.70;0.70;;;28.00;37.60;;;;;;5086980;28;20372;-91
2022/05/11 07:42:27;;;;;;;2.65;0.60;;;28.50;36.20;;;;;;5085319;28;20065;-90
2022/05/11 07:44:53;;;;;;;2.45;0.70;;;28.80;35.70;;;;;;5085908;28;20016;-91
2022/05/11 07:47:20;;;;;;;4.47;0.90;;;29.40;35.60;;;;;;5084409;28;20024;-89
2022/05/11 07:49:46;;;;;;;3.72;0.90;;;29.70;34.90;;;;;;5086298;28;20027;-89
2022/05/11 07:52:12;;;;;;;2.60;0.75;;;27.00;38.70;;;;;;5081587;28;20028;-91
2022/05/11 07:54:40;;;;;;;1.98;1.30;;;26.40;39.70;;;;;;5083624;28;20103;-91
2022/05/11 07:59:59;;;;;;;1.88;0.70;;;23.20;46.40;;;;;;5082315;28;20162;-89
2022/05/11 08:02:30;;;;;;;2.20;0.80;;;22.60;48.40;;;;;;5086236;28;20027;-90
2022/05/11 08:05:10;;;;;;;0.90;0.47;;;22.10;50.00;;;;;;5090318;28;20046;-89
2022/05/11 08:07:40;;;;;;;2.10;0.73;;;22.20;49.80;;;;;;5082901;28;20029;-91
2022/05/11 08:10:07;;;;;;;4.93;1.02;;;22.00;50.10;;;;;;5081634;28;20074;-89
2022/05/11 08:12:32;;;;;;;2.10;0.40;;;24.10;45.30;;;;;;5082383;28;20048;-90
2022/05/11 08:14:59;;;;;;;2.78;0.60;;;24.30;43.80;;;;;;5082500;28;20093;-91
2022/05/11 08:17:34;;;;;;;2.08;0.68;;;23.50;45.40;;;;;;5089438;28;20023;-90
2022/05/11 08:20:00;;;;;;;2.90;0.95;;;22.80;47.00;;;;;;5074298;28;20138;-89
2022/05/11 08:22:27;;;;;;;3.00;0.73;;;21.80;49.40;;;;;;5076142;28;20020;-88
2022/05/11 08:24:56;;;;;;;1.30;0.60;;;22.00;49.50;;;;;;5075393;28;20052;-88
2022/05/11 08:27:27;;;;;;;3.08;1.05;;;21.50;50.50;;;;;;5075008;28;20063;-89
2022/05/11 08:35:21;;;;;;;1.63;0.80;;;21.40;51.50;;;;;;5084657;28;20552;-91
2022/05/11 08:37:47;;;;;;;3.58;0.98;;;21.40;51.60;;;;;;5082219;28;20024;-91
2022/05/11 08:40:37;;;;;;;1.42;0.65;;;21.70;51.90;;;;;;5085366;28;20100;-90
2022/05/11 08:43:12;;;;;;;2.50;1.00;;;21.90;51.10;;;;;;5084071;28;20481;-89
2022/05/11 08:45:48;;;;;;;3.03;0.68;;;22.40;50.20;;;;;;5086076;28;20020;-91
2022/05/11 08:48:35;;;;;;;1.35;0.57;;;23.50;48.30;;;;;;5083926;28;20025;-91
2022/05/11 08:51:05;;;;;;;1.58;0.55;;;24.30;45.00;;;;;;5082874;28;20097;-91
2022/05/11 08:53:39;;;;;;;1.73;0.65;;;24.80;43.90;;;;;;5083797;28;20027;-90
2022/05/11 08:56:13;;;;;;;2.50;0.70;;;23.50;45.40;;;;;;5082786;28;20016;-91
2022/05/11 08:58:45;;;;;;;4.25;0.90;;;22.90;46.90;;;;;;5085847;28;20024;-90
2022/05/11 09:01:22;;;;;;;3.00;1.13;;;23.60;47.00;;;;;;5080654;28;20024;-90
2022/05/11 09:03:53;;;;;;;2.80;0.70;;;24.10;46.10;;;;;;5084629;28;20032;-91
2022/05/11 09:06:20;;;;;;;2.75;0.88;;;24.00;45.50;;;;;;5085118;28;20012;-90
2022/05/11 09:08:46;;;;;;;2.10;0.68;;;23.50;46.40;;;;;;5083306;28;20081;-90
2022/05/11 09:11:25;;;;;;;2.17;0.80;;;23.80;46.70;;;;;;5086309;28;20764;-91
2022/05/11 09:13:51;;;;;;;5.22;2.38;;;24.10;46.50;;;;;;5078061;28;20025;-90
2022/05/11 09:16:24;;;;;;;3.80;0.60;;;23.90;45.90;;;;;;5077870;28;20505;-90
2022/05/11 09:18:50;;;;;;;5.05;1.10;;;23.40;46.80;;;;;;5080339;28;20044;-89
2022/05/11 09:21:32;;;;;;;3.70;1.13;;;24.30;46.40;;;;;;5091510;28;20052;-89
2022/05/11 09:24:16;;;;;;;4.57;0.90;;;24.30;45.60;;;;;;5086313;28;20028;-90
2022/05/11 09:26:44;;;;;;;4.72;1.48;;;24.90;45.00;;;;;;5076073;28;20035;-89
2022/05/11 09:29:18;;;;;;;8.90;1.20;;;24.40;45.40;;;;;;5077741;28;20113;-89
2022/05/11 09:31:46;;;;;;;5.80;1.63;;;24.30;46.10;;;;;;5075904;28;20033;-91
2022/05/11 09:34:23;;;;;;;3.05;0.50;;;24.00;46.00;;;;;;5078775;28;20082;-90
2022/05/11 09:36:54;;;;;;;6.07;1.08;;;23.70;46.70;;;;;;5082940;28;20031;-91
2022/05/11 09:39:19;;;;;;;3.85;0.90;;;24.00;46.30;;;;;;5095747;28;20642;-91
2022/05/11 09:41:51;;;;;;;1.50;0.70;;;24.30;46.50;;;;;;5097382;28;20126;-91
2022/05/11 09:44:39;;;;;;;5.25;0.98;;;23.90;45.70;;;;;;5087991;28;20051;-83
2022/05/11 09:47:28;;;;;;;2.33;0.63;;;23.90;46.80;;;;;;5096602;28;20035;-84
2022/05/11 09:49:55;;;;;;;2.17;0.80;;;23.70;46.70;;;;;;5076124;28;20037;-83
2022/05/11 09:52:34;;;;;;;2.83;1.00;;;23.30;47.30;;;;;;5088191;28;20111;-84
2022/05/11 09:55:01;;;;;;;2.13;0.90;;;23.50;47.30;;;;;;5096407;28;20016;-83
2022/05/11 09:57:28;;;;;;;3.95;1.17;;;25.20;44.50;;;;;;5089928;28;20020;-83
2022/05/11 10:00:18;;;;;;;6.30;1.15;;;26.80;41.10;;;;;;5075490;28;20028;-84
2022/05/11 10:02:49;;;;;;;2.97;0.77;;;27.90;37.80;;;;;;5093122;28;20028;-83
2022/05/11 10:05:39;;;;;;;1.52;0.80;;;28.30;36.50;;;;;;5076110;28;20446;-83
2022/05/11 10:08:25;;;;;;;3.38;0.60;;;28.30;36.50;;;;;;5069256;28;20070;-84
2022/05/11 10:10:55;;;;;;;4.72;0.98;;;28.90;35.50;;;;;;5074329;28;20025;-84
2022/05/11 10:13:42;;;;;;;1.20;0.70;;;29.30;33.70;;;;;;5086345;28;20030;-84
2022/05/11 10:22:08;;;;;;;1.30;0.65;;;28.80;34.60;;;;;;5094070;28;20081;-84
2022/05/11 10:25:26;;;;;;;1.30;0.50;;;28.70;34.80;;;;;;5075756;28;20032;-84
2022/05/11 10:28:27;;;;;;;4.15;0.93;;;28.20;35.90;;;;;;5012523;28;20033;-84
2022/05/11 10:31:07;;;;;;;1.10;0.60;;;28.00;36.40;;;;;;5013313;28;20207;-84
2022/05/11 10:33:57;;;;;;;0.85;0.43;;;27.00;36.10;;;;;;5063465;28;20040;-84
2022/05/11 10:36:43;;;;;;;3.00;0.50;;;25.90;38.80;;;;;;5075545;28;20024;-84
2022/05/11 10:39:21;;;;;;;5.90;0.90;;;25.40;40.40;;;;;;5075574;28;20100;-83
2022/05/11 10:42:20;;;;;;;1.88;0.40;;;25.20;41.00;;;;;;5085712;28;20036;-83
2022/05/11 10:45:19;;;;;;;1.70;0.82;;;24.80;41.70;;;;;;5095480;28;20059;-83
2022/05/11 10:47:48;;;;;;;4.40;0.90;;;24.80;42.90;;;;;;5080342;28;20040;-83
2022/05/11 10:50:21;;;;;;;1.50;0.98;;;24.90;41.70;;;;;;5083838;28;20032;-84
2022/05/11 10:53:24;;;;;;;1.30;0.45;;;24.80;42.70;;;;;;5086136;28;20035;-83
2022/05/11 10:56:17;;;;;;;1.50;0.80;;;24.50;42.80;;;;;;5075260;28;20028;-83
2022/05/11 10:59:21;;;;;;;1.65;0.90;;;24.50;42.50;;;;;;5073500;28;20032;-84
2022/05/11 11:02:17;;;;;;;1.73;0.70;;;24.60;42.30;;;;;;5074592;28;20123;-84
2022/05/11 11:04:43;;;;;;;1.83;0.60;;;24.60;42.80;;;;;;5103029;28;20443;-84
2022/05/11 11:07:34;;;;;;;1.73;0.57;;;24.60;42.30;;;;;;5074849;28;20024;-83
2022/05/11 11:10:13;;;;;;;3.97;0.73;;;24.70;42.20;;;;;;5074855;28;20039;-84
2022/05/11 11:12:51;;;;;;;3.40;0.80;;;24.70;42.10;;;;;;5093151;28;20031;-84
2022/05/11 11:15:22;;;;;;;2.65;0.90;;;24.80;41.40;;;;;;5088305;28;20115;-84
2022/05/11 11:17:48;;;;;;;1.27;0.80;;;24.70;42.10;;;;;;5073310;28;20017;-84
2022/05/11 11:20:18;;;;;;;2.00;1.08;;;24.50;42.20;;;;;;5074583;28;20059;-85
2022/05/11 11:23:23;;;;;;;1.55;0.65;;;24.30;42.90;;;;;;5074199;28;20051;-84
2022/05/11 11:25:51;;;;;;;3.65;0.80;;;24.30;42.90;;;;;;5074352;28;20058;-83
2022/05/11 11:28:17;;;;;;;2.83;0.60;;;24.40;42.80;;;;;;5084386;28;20027;-83
2022/05/11 11:31:04;;;;;;;5.40;0.60;;;24.40;43.40;;;;;;5076622;28;20031;-84
2022/05/11 11:33:41;;;;;;;9.85;1.17;;;24.60;42.50;;;;;;5088640;28;20119;-83
2022/05/11 11:36:18;;;;;;;1.90;0.55;;;24.80;43.80;;;;;;5094687;28;20051;-84
2022/05/11 11:38:48;;;;;;;2.38;0.65;;;24.80;42.80;;;;;;5086126;28;20124;-84
2022/05/11 11:41:28;;;;;;;4.07;0.80;;;24.50;43.10;;;;;;5074281;28;20024;-84
2022/05/11 11:44:30;;;;;;;4.63;1.90;;;24.40;44.80;;;;;;5078607;28;20036;-83
2022/05/11 11:46:57;;;;;;;2.50;0.70;;;24.50;44.70;;;;;;5085987;28;20042;-86
2022/05/11 11:49:27;;;;;;;1.77;0.50;;;24.60;44.80;;;;;;5090987;28;20060;-87
2022/05/11 11:51:57;;;;;;;1.95;0.70;;;24.70;43.30;;;;;;5083430;28;20071;-87
2022/05/11 11:54:34;;;;;;;3.53;0.40;;;24.90;43.60;;;;;;5080696;28;20051;-85
2022/05/11 11:57:02;;;;;;;2.55;0.50;;;24.70;43.20;;;;;;5080098;28;20386;-85
2022/05/11 11:59:30;;;;;;;2.47;0.63;;;24.80;43.90;;;;;;5083204;28;20016;-85
2022/05/11 12:02:16;;;;;;;2.88;0.60;;;24.80;44.70;;;;;;5083302;28;20032;-86
2022/05/11 12:04:47;;;;;;;2.05;0.63;;;24.90;42.70;;;;;;5089103;28;20032;-85
2022/05/11 12:16:07;;;;;;;5.00;0.80;;;25.30;42.50;;;;;;5024995;28;20040;-85
2022/05/11 12:18:38;;;;;;;5.72;0.63;;;25.60;41.80;;;;;;5066669;28;20044;-85
2022/05/11 12:21:11;;;;;;;1.10;0.30;;;25.60;42.40;;;;;;5080804;28;20059;-86
2022/05/11 12:23:46;;;;;;;2.67;0.60;;;25.30;41.50;;;;;;5068354;28;20037;-85
2022/05/11 12:26:26;;;;;;;2.22;0.63;;;25.10;41.70;;;;;;5068319;28;20031;-85
2022/05/11 12:29:54;;;;;;;2.83;0.60;;;25.10;41.30;;;;;;5067824;28;20064;-85
2022/05/11 12:31:52;;;;;;;2.15;0.52;;;25.40;42.90;;;;;;5067928;28;20043;-85
2022/05/11 12:34:21;;;;;;;2.17;0.60;;;25.60;42.20;;;;;;5068182;28;20628;-86
2022/05/11 12:36:49;;;;;;;1.23;0.50;;;25.70;42.00;;;;;;5065945;28;20764;-86
2022/05/11 12:39:27;;;;;;;1.88;0.38;;;25.60;42.00;;;;;;5067266;28;20043;-87
2022/05/11 12:41:53;;;;;;;2.72;0.57;;;25.30;42.50;;;;;;5072451;28;20031;-87
2022/05/11 12:44:28;;;;;;;2.03;0.60;;;25.30;42.30;;;;;;5082655;28;20130;-86
2022/05/11 12:46:56;;;;;;;2.58;0.40;;;25.30;42.80;;;;;;5067659;28;20035;-85
2022/05/11 12:49:22;;;;;;;1.52;0.55;;;25.00;43.10;;;;;;5069700;28;20036;-86
2022/05/11 12:51:56;;;;;;;0.73;0.30;;;25.10;43.90;;;;;;5077767;28;20036;-86
2022/05/11 12:54:25;;;;;;;0.63;0.40;;;24.90;44.20;;;;;;5076138;28;20059;-86
2022/05/11 12:57:08;;;;;;;1.90;0.60;;;25.20;43.70;;;;;;5075174;28;20085;-86
2022/05/11 12:59:35;;;;;;;1.20;0.50;;;25.20;44.00;;;;;;5069050;28;20120;-85
2022/05/11 13:02:18;;;;;;;1.30;0.40;;;25.20;43.40;;;;;;5070510;28;20033;-86
2022/05/11 13:04:55;;;;;;;1.75;0.80;;;25.20;43.90;;;;;;5081022;28;20105;-86
2022/05/11 13:07:40;;;;;;;1.38;0.38;;;25.00;43.50;;;;;;5081835;28;20036;-85
2022/05/11 13:10:07;;;;;;;2.05;0.75;;;25.10;44.50;;;;;;5082095;28;20029;-86
2022/05/11 13:12:33;;;;;;;1.70;0.60;;;25.00;44.00;;;;;;5078896;28;20029;-90
2022/05/11 13:15:01;;;;;;;1.35;0.43;;;24.90;44.70;;;;;;5079713;28;20028;-88
2022/05/11 13:17:36;;;;;;;1.83;0.40;;;24.80;44.30;;;;;;5076508;28;20477;-88
2022/05/11 13:20:18;;;;;;;6.28;0.50;;;24.70;44.30;;;;;;5082741;28;20076;-85
2022/05/11 13:22:51;;;;;;;0.95;0.52;;;24.70;44.50;;;;;;5082567;28;20017;-89
2022/05/11 13:25:44;;;;;;;0.77;0.40;;;24.60;44.80;;;;;;5083193;28;20099;-88
2022/05/11 13:28:21;;;;;;;1.08;0.55;;;24.60;45.10;;;;;;5079335;28;21030;-88
2022/05/11 13:30:47;;;;;;;6.38;0.45;;;24.70;45.80;;;;;;5071161;28;20029;-87
2022/05/11 13:33:34;;;;;;;1.67;0.45;;;24.70;45.10;;;;;;5070289;28;20082;-87
2022/05/11 13:36:25;;;;;;;2.67;0.90;;;24.50;45.50;;;;;;5088301;28;20077;-86
2022/05/11 13:39:34;;;;;;;2.65;0.77;;;24.60;45.90;;;;;;5083892;28;20023;-86